Time;durP1;ratioP1;P1;durP2;ratioP2;P2;SDS_P1;SDS_P2;PMS_P1;PMS_P2;Temp;Humidity;BMP_temperature;BMP_pressure;BME280_temperature;BME280_humidity;BME280_pressure;Samples;Min_cycle;Max_cycle;Signal;HPM_P1;HPM_P2
2023/04/15 00:00:21;;;;;;;;;;;;;;;7.80;66.03;98944.81;1087450;54;19939;-81
2023/04/15 00:01:25;;;;;;;;;;;;;;;7.82;65.82;98950.81;1087866;47;19949;-81
2023/04/15 00:02:29;;;;;;;;;;;;;;;7.84;65.70;98942.66;1087596;47;19934;-81
2023/04/15 00:03:33;;;;;;;;;;;;;;;7.90;65.21;98944.69;1087515;54;19966;-80
2023/04/15 00:04:36;;;;;;;;;;;;;;;7.92;65.44;98943.56;1087504;54;19965;-80
2023/04/15 00:05:41;;;;;;;;;;;;;;;7.95;64.98;98937.94;1088374;47;20028;-79
2023/04/15 00:06:42;;;;;;;;;;;;;;;8.02;64.64;98943.47;1087497;54;19950;-80
2023/04/15 00:07:48;;;;;;;;;;;;;;;8.07;64.68;98948.31;1087531;54;19949;-80
2023/04/15 00:08:49;;;;;;;;;;;;;;;7.96;65.17;98941.44;1087453;54;19949;-81
2023/04/15 00:10:01;;;;;;;;;;;;;;;7.93;65.12;98945.25;1087536;54;20039;-80
2023/04/15 00:11:04;;;;;;;;;;;;;;;7.90;65.48;98944.69;1087501;54;19949;-80
2023/04/15 00:12:11;;;;;;;;;;;;;;;7.89;65.50;98941.22;1087369;54;19954;-81
2023/04/15 00:13:12;;;;;;;;;;;;;;;7.90;65.33;98944.69;1087556;54;19950;-82
2023/04/15 00:14:17;;;;;;;;;;;;;;;7.85;65.77;98947.81;1087604;47;19939;-80
2023/04/15 00:15:18;;;;;;;;;;;;;;;7.84;65.83;98943.47;1088019;47;19949;-80
2023/04/15 00:16:23;;;;;;;;;;;;;;;7.81;65.95;98941.16;1087454;54;19943;-81
2023/04/15 00:17:24;;;;;;;;;;;;;;;7.86;65.83;98943.34;1087474;54;19935;-80
2023/04/15 00:18:30;;;;;;;;;;;;;;;7.89;65.43;98946.53;1087357;54;19950;-81
2023/04/15 00:19:32;;;;;;;;;;;;;;;7.94;65.13;98941.56;1087538;54;19942;-81
2023/04/15 00:20:36;;;;;;;;;;;;;;;8.01;64.82;98943.63;1087395;54;20249;-80
2023/04/15 00:21:37;;;;;;;;;;;;;;;8.04;64.51;98943.31;1087442;54;19973;-81
2023/04/15 00:22:41;;;;;;;;;;;;;;;8.08;64.31;98942.84;1087501;54;19943;-80
2023/04/15 00:23:51;;;;;;;;;;;;;;;8.10;64.42;98942.69;1087426;54;19943;-81
2023/04/15 00:24:55;;;;;;;;;;;;;;;8.13;64.56;98937.03;1087445;54;19983;-80
2023/04/15 00:25:57;;;;;;;;;;;;;;;8.14;64.62;98937.91;1087580;54;19965;-81
2023/04/15 00:27:02;;;;;;;;;;;;;;;8.03;65.14;98944.31;1087387;54;20990;-81
2023/04/15 00:28:03;;;;;;;;;;;;;;;8.00;65.13;98939.31;1087669;46;19962;-80
2023/04/15 00:29:08;;;;;;;;;;;;;;;7.96;65.61;98944.09;1086984;54;19958;-80
2023/04/15 00:30:10;;;;;;;;;;;;;;;7.94;65.34;98940.75;1089587;39;20590;-80
2023/04/15 00:31:14;;;;;;;;;;;;;;;7.96;64.97;98942.25;1087478;54;19966;-82
2023/04/15 00:32:15;;;;;;;;;;;;;;;7.95;65.44;98951.22;1087366;54;19942;-80
2023/04/15 00:33:19;;;;;;;;;;;;;;;7.96;65.39;98946.75;1087480;54;20650;-80
2023/04/15 00:34:21;;;;;;;;;;;;;;;7.91;65.60;98947.22;1087509;54;19939;-80
2023/04/15 00:35:25;;;;;;;;;;;;;;;7.89;65.53;98951.00;1087456;54;19949;-80
2023/04/15 00:36:26;;;;;;;;;;;;;;;7.90;65.16;98950.88;1087432;54;19950;-79
2023/04/15 00:37:30;;;;;;;;;;;;;;;7.81;65.30;98946.47;1087406;54;19946;-80
2023/04/15 00:38:38;;;;;;;;;;;;;;;7.77;65.20;98945.94;1087358;54;19942;-79
2023/04/15 00:39:44;;;;;;;;;;;;;;;7.72;65.70;98942.06;1087409;54;20005;-80
2023/04/15 00:40:45;;;;;;;;;;;;;;;7.68;65.67;98940.69;1087338;54;19935;-80
2023/04/15 00:41:50;;;;;;;;;;;;;;;7.62;65.84;98935.00;1087320;54;19942;-79
2023/04/15 00:42:51;;;;;;;;;;;;;;;7.57;66.04;98942.59;1087419;54;19943;-80
2023/04/15 00:43:56;;;;;;;;;;;;;;;7.52;66.11;98942.25;1087255;54;20655;-79
2023/04/15 00:44:58;;;;;;;;;;;;;;;7.49;66.33;98937.22;1087471;54;20621;-80
2023/04/15 00:46:02;;;;;;;;;;;;;;;7.46;66.65;98943.69;1087413;54;19943;-81
2023/04/15 00:47:04;;;;;;;;;;;;;;;7.45;66.73;98947.31;1087332;54;19943;-80
2023/04/15 00:48:09;;;;;;;;;;;;;;;7.43;66.83;98940.50;1087350;54;19953;-80
2023/04/15 00:49:11;;;;;;;;;;;;;;;7.37;67.22;98941.94;1087394;54;19941;-79
2023/04/15 00:50:15;;;;;;;;;;;;;;;7.39;67.11;98941.75;1087240;54;19966;-78
2023/04/15 00:51:16;;;;;;;;;;;;;;;7.35;67.37;98949.22;1087395;54;20598;-79
2023/04/15 00:52:20;;;;;;;;;;;;;;;7.38;67.42;98946.25;1087541;47;19991;-80
2023/04/15 00:53:22;;;;;;;;;;;;;;;7.40;67.09;98940.78;1087482;47;19951;-81
2023/04/15 00:54:25;;;;;;;;;;;;;;;7.36;67.28;98942.09;1087392;54;19969;-80
2023/04/15 00:55:30;;;;;;;;;;;;;;;7.38;67.00;98945.41;1087348;39;20203;-80
2023/04/15 00:56:36;;;;;;;;;;;;;;;7.37;67.19;98943.75;1087468;54;19950;-80
2023/04/15 00:57:38;;;;;;;;;;;;;;;7.26;67.42;98943.00;1087400;54;19946;-79
2023/04/15 00:58:42;;;;;;;;;;;;;;;7.29;67.39;98941.84;1087327;54;19942;-81
2023/04/15 00:59:44;;;;;;;;;;;;;;;7.28;67.52;98935.69;1087457;54;19970;-80
2023/04/15 01:00:48;;;;;;;;;;;;;;;7.29;67.09;98937.34;1087334;54;19966;-80
2023/04/15 01:01:49;;;;;;;;;;;;;;;7.33;67.08;98938.75;1087437;54;19943;-79
2023/04/15 01:02:53;;;;;;;;;;;;;;;7.42;66.28;98936.16;1087374;54;19943;-79
2023/04/15 01:03:55;;;;;;;;;;;;;;;7.47;66.36;98933.88;1087470;54;20014;-81
2023/04/15 01:04:59;;;;;;;;;;;;;;;7.50;66.07;98933.56;1087719;54;20027;-80
2023/04/15 01:06:01;;;;;;;;;;;;;;;7.47;66.32;98937.38;1087664;54;20627;-80
2023/04/15 01:07:06;;;;;;;;;;;;;;;7.44;66.82;98940.31;1087740;54;19949;-80
2023/04/15 01:08:08;;;;;;;;;;;;;;;7.46;66.77;98945.50;1087746;54;20317;-80
2023/04/15 01:09:12;;;;;;;;;;;;;;;7.46;66.84;98940.19;1087693;54;19943;-81
2023/04/15 01:10:13;;;;;;;;;;;;;;;7.48;66.69;98941.72;1090521;39;20512;-79
2023/04/15 01:11:22;;;;;;;;;;;;;;;7.53;66.38;98937.75;1088969;46;19965;-81
2023/04/15 01:12:25;;;;;;;;;;;;;;;7.51;66.65;98937.09;1087615;54;19999;-80
2023/04/15 01:13:30;;;;;;;;;;;;;;;7.46;66.65;98940.19;1087660;54;19950;-80
2023/04/15 01:14:32;;;;;;;;;;;;;;;7.47;66.88;98939.19;1087582;54;19942;-81
2023/04/15 01:15:37;;;;;;;;;;;;;;;7.44;66.76;98939.50;1087759;54;20233;-80
2023/04/15 01:16:41;;;;;;;;;;;;;;;7.48;66.37;98940.84;1087687;54;19947;-79
2023/04/15 01:17:43;;;;;;;;;;;;;;;7.46;66.52;98948.19;1087687;54;19946;-80
2023/04/15 01:18:47;;;;;;;;;;;;;;;7.45;66.74;98946.50;1087518;54;19956;-80
2023/04/15 01:19:50;;;;;;;;;;;;;;;7.45;66.80;98951.81;1087846;46;19995;-79
2023/04/15 01:20:54;;;;;;;;;;;;;;;7.39;67.28;98947.09;1087424;54;20601;-79
2023/04/15 01:21:56;;;;;;;;;;;;;;;7.33;67.91;98941.41;1087487;54;19942;-80
2023/04/15 01:23:00;;;;;;;;;;;;;;;7.26;68.67;98945.66;1087486;54;20018;-81
2023/04/15 01:24:01;;;;;;;;;;;;;;;7.19;69.44;98947.22;1087403;54;20652;-80
2023/04/15 01:25:08;;;;;;;;;;;;;;;7.08;70.12;98948.28;1087583;54;19950;-79
2023/04/15 01:26:12;;;;;;;;;;;;;;;7.05;70.19;98937.94;1087429;54;19943;-80
2023/04/15 01:27:16;;;;;;;;;;;;;;;6.98;70.44;98942.19;1087536;54;19950;-80
2023/04/15 01:28:18;;;;;;;;;;;;;;;6.96;70.57;98941.47;1087533;54;19973;-79
2023/04/15 01:29:22;;;;;;;;;;;;;;;6.97;70.07;98938.69;1087360;54;19954;-81
2023/04/15 01:30:25;;;;;;;;;;;;;;;6.88;70.22;98939.59;1087437;54;19957;-80
2023/04/15 01:31:30;;;;;;;;;;;;;;;6.81;70.48;98942.00;1087566;54;19943;-80
2023/04/15 01:32:31;;;;;;;;;;;;;;;6.77;70.55;98942.44;1087525;54;20337;-79
2023/04/15 01:33:35;;;;;;;;;;;;;;;6.69;70.56;98936.03;1088591;46;19942;-80
2023/04/15 01:34:39;;;;;;;;;;;;;;;6.66;70.54;98940.81;1087629;54;19943;-80
2023/04/15 01:35:43;;;;;;;;;;;;;;;6.62;70.98;98934.13;1087329;54;19946;-80
2023/04/15 01:36:46;;;;;;;;;;;;;;;6.62;71.10;98934.13;1088060;46;19951;-80
2023/04/15 01:37:48;;;;;;;;;;;;;;;6.55;71.67;98940.03;1088500;39;20212;-79
2023/04/15 01:38:52;;;;;;;;;;;;;;;6.51;71.52;98933.31;1087535;54;19945;-80
2023/04/15 01:39:56;;;;;;;;;;;;;;;6.50;71.52;98933.47;1087589;46;19962;-80
2023/04/15 01:41:00;;;;;;;;;;;;;;;6.45;71.74;98938.38;1087625;54;19949;-81
2023/04/15 01:42:06;;;;;;;;;;;;;;;6.46;71.47;98940.03;1087519;54;19950;-81
2023/04/15 01:43:10;;;;;;;;;;;;;;;6.41;71.83;98943.13;1087573;54;19951;-80
2023/04/15 01:44:11;;;;;;;;;;;;;;;6.39;72.16;98945.94;1087614;54;19945;-82
2023/04/15 01:45:15;;;;;;;;;;;;;;;6.35;72.30;98947.19;1087574;54;19950;-80
2023/04/15 01:46:17;;;;;;;;;;;;;;;6.32;72.03;98944.00;1087619;54;20304;-80
2023/04/15 01:47:21;;;;;;;;;;;;;;;6.32;72.26;98949.31;1088391;46;19964;-80
2023/04/15 01:48:22;;;;;;;;;;;;;;;6.40;71.51;98952.06;1087491;54;19943;-80
2023/04/15 01:49:26;;;;;;;;;;;;;;;6.43;71.32;98946.47;1087467;54;20185;-79
2023/04/15 01:50:28;;;;;;;;;;;;;;;6.49;70.91;98950.38;1087678;47;19950;-80
2023/04/15 01:51:33;;;;;;;;;;;;;;;6.56;70.41;98952.28;1087554;31;20688;-80
2023/04/15 01:52:34;;;;;;;;;;;;;;;6.54;70.40;98950.75;1087441;54;20021;-80
2023/04/15 01:53:37;;;;;;;;;;;;;;;6.55;70.68;98949.78;1087401;54;19950;-80
2023/04/15 01:54:38;;;;;;;;;;;;;;;6.55;70.75;98952.44;1087617;54;19943;-80
2023/04/15 01:55:43;;;;;;;;;;;;;;;6.57;70.43;98953.13;1087422;54;20024;-79
2023/04/15 01:56:44;;;;;;;;;;;;;;;6.59;70.41;98956.50;1087407;54;19965;-80
2023/04/15 01:57:51;;;;;;;;;;;;;;;6.55;70.46;98947.97;1087445;54;19949;-79
2023/04/15 01:58:53;;;;;;;;;;;;;;;6.47;70.89;98950.50;1087381;54;20955;-80
2023/04/15 01:59:58;;;;;;;;;;;;;;;6.39;71.39;98951.25;1087415;54;19998;-81
2023/04/15 02:00:59;;;;;;;;;;;;;;;6.35;71.46;98944.53;1087479;54;19947;-81
2023/04/15 02:02:03;;;;;;;;;;;;;;;6.35;71.61;98949.84;1087550;54;19942;-80
2023/04/15 02:03:05;;;;;;;;;;;;;;;6.28;71.79;98943.44;1087500;54;19949;-79
2023/04/15 02:04:15;;;;;;;;;;;;;;;6.31;71.84;98943.19;1087353;54;19943;-80
2023/04/15 02:05:17;;;;;;;;;;;;;;;6.28;72.02;98942.63;1087360;54;19967;-80
2023/04/15 02:06:21;;;;;;;;;;;;;;;6.25;71.95;98941.06;1087417;54;20006;-81
2023/04/15 02:07:31;;;;;;;;;;;;;;;6.24;72.27;98947.34;1087443;54;19949;-80
2023/04/15 02:08:34;;;;;;;;;;;;;;;6.24;72.06;98947.34;1087506;54;19949;-80
2023/04/15 02:09:37;;;;;;;;;;;;;;;6.20;72.59;98944.16;1087382;54;19943;-80
2023/04/15 02:10:41;;;;;;;;;;;;;;;6.19;72.65;98946.97;1087393;54;20591;-81
2023/04/15 02:11:42;;;;;;;;;;;;;;;6.18;72.30;98945.28;1087496;54;19943;-80
2023/04/15 02:12:46;;;;;;;;;;;;;;;6.16;72.74;98939.28;1087985;46;19943;-80
2023/04/15 02:13:52;;;;;;;;;;;;;;;6.15;72.96;98937.59;1087797;39;20087;-80
2023/04/15 02:14:56;;;;;;;;;;;;;;;6.12;73.14;98936.09;1087409;54;19943;-81
2023/04/15 02:15:58;;;;;;;;;;;;;;;6.12;73.02;98940.56;1087369;54;19967;-81
2023/04/15 02:17:06;;;;;;;;;;;;;;;6.07;73.31;98946.31;1087498;54;20539;-79
2023/04/15 02:18:07;;;;;;;;;;;;;;;5.99;73.66;98941.69;1087363;54;19958;-79
2023/04/15 02:19:11;;;;;;;;;;;;;;;5.97;73.82;98946.28;1087301;54;19949;-81
2023/04/15 02:20:14;;;;;;;;;;;;;;;5.92;74.17;98943.22;1087445;54;19966;-80
2023/04/15 02:21:18;;;;;;;;;;;;;;;5.93;74.40;98945.72;1087377;54;19943;-80
2023/04/15 02:22:19;;;;;;;;;;;;;;;5.90;74.23;98946.00;1087286;54;19977;-80
2023/04/15 02:23:23;;;;;;;;;;;;;;;5.92;74.32;98952.00;1087489;54;19942;-80
2023/04/15 02:24:24;;;;;;;;;;;;;;;5.93;74.11;98950.22;1087332;54;19942;-80
2023/04/15 02:25:29;;;;;;;;;;;;;;;5.93;74.11;98945.72;1087498;54;19943;-80
2023/04/15 02:26:32;;;;;;;;;;;;;;;5.97;74.29;98953.41;1087455;54;19954;-80
2023/04/15 02:27:36;;;;;;;;;;;;;;;5.99;74.35;98949.66;1087350;54;19998;-79
2023/04/15 02:28:37;;;;;;;;;;;;;;;6.00;74.23;98953.16;1087281;54;19973;-79
2023/04/15 02:29:45;;;;;;;;;;;;;;;6.06;73.33;98948.09;1087137;54;19942;-80
2023/04/15 02:30:46;;;;;;;;;;;;;;;6.06;73.39;98940.16;1087327;54;19943;-82
2023/04/15 02:31:50;;;;;;;;;;;;;;;5.98;73.59;98947.94;1087221;54;19942;-80
2023/04/15 02:32:52;;;;;;;;;;;;;;;5.91;73.89;98944.19;1087305;54;19943;-81
2023/04/15 02:33:57;;;;;;;;;;;;;;;5.90;73.92;98950.47;1087139;54;19949;-79
2023/04/15 02:35:01;;;;;;;;;;;;;;;5.89;73.94;98948.81;1087356;54;19942;-80
2023/04/15 02:36:06;;;;;;;;;;;;;;;5.94;73.47;98939.44;1087320;54;19949;-80
2023/04/15 02:37:07;;;;;;;;;;;;;;;5.93;73.60;98944.91;1087412;54;19943;-81
2023/04/15 02:38:11;;;;;;;;;;;;;;;5.99;73.38;98948.81;1087347;54;19943;-80
2023/04/15 02:39:15;;;;;;;;;;;;;;;6.03;72.93;98945.75;1087349;54;19950;-80
2023/04/15 02:40:20;;;;;;;;;;;;;;;6.01;72.98;98941.53;1087372;54;19994;-80
2023/04/15 02:41:26;;;;;;;;;;;;;;;6.04;73.14;98944.78;1087377;54;19960;-80
2023/04/15 02:42:29;;;;;;;;;;;;;;;6.14;72.22;98942.09;1087279;54;19942;-80
2023/04/15 02:43:32;;;;;;;;;;;;;;;6.21;72.02;98942.38;1087331;54;19955;-81
2023/04/15 02:44:36;;;;;;;;;;;;;;;6.27;71.57;98944.44;1087334;54;19938;-79
2023/04/15 02:45:43;;;;;;;;;;;;;;;6.34;71.27;98944.69;1087443;54;19943;-80
2023/04/15 02:46:45;;;;;;;;;;;;;;;6.37;71.08;98945.25;1087329;54;20694;-81
2023/04/15 02:47:49;;;;;;;;;;;;;;;6.41;71.36;98951.09;1087308;54;19943;-79
2023/04/15 02:48:52;;;;;;;;;;;;;;;6.45;71.04;98949.84;1087268;54;19942;-80
2023/04/15 02:49:57;;;;;;;;;;;;;;;6.48;70.94;98946.03;1087314;54;19942;-79
2023/04/15 02:51:13;;;;;;;;;;;;;;;6.52;70.92;98942.09;1089356;31;20563;-79
2023/04/15 02:52:17;;;;;;;;;;;;;;;6.54;70.51;98942.78;1086892;54;19949;-79
2023/04/15 02:53:18;;;;;;;;;;;;;;;6.56;70.71;98943.50;1087002;54;19942;-79
2023/04/15 02:54:24;;;;;;;;;;;;;;;6.58;70.36;98949.50;1086902;54;19950;-80
2023/04/15 02:55:26;;;;;;;;;;;;;;;6.56;70.46;98941.66;1090283;39;20634;-79
2023/04/15 02:56:30;;;;;;;;;;;;;;;6.56;70.82;98946.16;1087179;54;19943;-80
2023/04/15 02:57:31;;;;;;;;;;;;;;;6.56;70.44;98938.19;1087067;54;19942;-80
2023/04/15 02:58:35;;;;;;;;;;;;;;;6.58;70.49;98938.88;1086908;54;19965;-79
2023/04/15 02:59:38;;;;;;;;;;;;;;;6.60;70.26;98931.63;1086836;54;20026;-79
2023/04/15 03:00:44;;;;;;;;;;;;;;;6.64;70.01;98938.28;1086700;54;19943;-80
2023/04/15 03:01:48;;;;;;;;;;;;;;;6.65;70.16;98929.34;1086869;54;19949;-80
2023/04/15 03:02:55;;;;;;;;;;;;;;;6.60;69.96;98936.06;1086757;54;19995;-79
2023/04/15 03:03:56;;;;;;;;;;;;;;;6.44;70.82;98932.22;1089340;39;20291;-79
2023/04/15 03:05:00;;;;;;;;;;;;;;;6.34;71.23;98931.41;1086901;54;19942;-79
2023/04/15 03:06:01;;;;;;;;;;;;;;;6.21;71.67;98931.75;1086886;54;19947;-79
2023/04/15 03:07:05;;;;;;;;;;;;;;;6.18;72.08;98932.03;1086849;54;19986;-80
2023/04/15 03:08:06;;;;;;;;;;;;;;;6.14;72.28;98935.97;1086835;54;20994;-80
2023/04/15 03:09:10;;;;;;;;;;;;;;;6.09;72.39;98936.41;1086814;54;19949;-80
2023/04/15 03:10:13;;;;;;;;;;;;;;;6.07;72.57;98936.50;1086822;54;19950;-81
2023/04/15 03:11:17;;;;;;;;;;;;;;;6.03;72.75;98934.28;1088113;46;19943;-80
2023/04/15 03:12:20;;;;;;;;;;;;;;;6.04;72.50;98925.34;1087037;54;19950;-80
2023/04/15 03:13:24;;;;;;;;;;;;;;;5.98;72.59;98932.03;1087088;54;19958;-80
2023/04/15 03:14:25;;;;;;;;;;;;;;;5.89;73.09;98932.88;1088851;46;19950;-80
2023/04/15 03:15:29;;;;;;;;;;;;;;;5.83;73.42;98930.81;1086895;54;19942;-80
2023/04/15 03:16:33;;;;;;;;;;;;;;;5.74;74.09;98935.13;1087000;54;20716;-80
2023/04/15 03:17:37;;;;;;;;;;;;;;;5.67;73.97;98945.47;1086985;54;19942;-80
2023/04/15 03:18:40;;;;;;;;;;;;;;;5.73;73.72;98944.91;1087066;54;20922;-81
2023/04/15 03:19:43;;;;;;;;;;;;;;;5.69;73.82;98938.22;1087053;54;20675;-80
2023/04/15 03:20:54;;;;;;;;;;;;;;;5.66;73.84;98943.81;1087037;54;19943;-79
2023/04/15 03:21:56;;;;;;;;;;;;;;;5.62;74.01;98947.72;1087046;54;19935;-79
2023/04/15 03:23:02;;;;;;;;;;;;;;;5.55;74.46;98941.28;1086987;54;19943;-80
2023/04/15 03:24:03;;;;;;;;;;;;;;;5.46;74.86;98943.81;1087036;54;19950;-80
2023/04/15 03:25:07;;;;;;;;;;;;;;;5.45;75.08;98935.97;1086989;54;19942;-78
2023/04/15 03:26:09;;;;;;;;;;;;;;;5.42;75.12;98936.28;1088035;46;19946;-79
2023/04/15 03:27:14;;;;;;;;;;;;;;;5.37;75.59;98944.66;1086899;54;20651;-80
2023/04/15 03:28:15;;;;;;;;;;;;;;;5.40;75.43;98949.66;1087120;54;19938;-80
2023/04/15 03:29:19;;;;;;;;;;;;;;;5.39;75.37;98950.63;1087052;54;19954;-80
2023/04/15 03:30:20;;;;;;;;;;;;;;;5.37;75.36;98946.44;1086642;54;21737;-80
2023/04/15 03:31:25;;;;;;;;;;;;;;;5.30;75.25;98949.66;1087382;54;19942;-80
2023/04/15 03:32:29;;;;;;;;;;;;;;;5.28;75.64;98943.66;1087374;54;20308;-79
2023/04/15 03:33:32;;;;;;;;;;;;;;;5.21;75.87;98944.31;1087291;54;19950;-81
2023/04/15 03:34:34;;;;;;;;;;;;;;;5.18;76.23;98944.63;1087361;54;20683;-80
2023/04/15 03:35:38;;;;;;;;;;;;;;;5.20;75.89;98937.34;1087481;54;19950;-80
2023/04/15 03:36:42;;;;;;;;;;;;;;;5.20;75.78;98937.34;1087419;54;19939;-80
2023/04/15 03:37:45;;;;;;;;;;;;;;;5.24;75.55;98938.75;1087367;54;19964;-81
2023/04/15 03:38:49;;;;;;;;;;;;;;;5.27;75.27;98935.84;1087415;54;20303;-81
2023/04/15 03:39:50;;;;;;;;;;;;;;;5.23;75.57;98937.09;1087573;47;19943;-80
2023/04/15 03:40:54;;;;;;;;;;;;;;;5.19;75.67;98935.69;1087325;54;19995;-80
2023/04/15 03:41:55;;;;;;;;;;;;;;;5.13;75.41;98932.59;1088099;46;19946;-80
2023/04/15 03:42:59;;;;;;;;;;;;;;;5.10;75.80;98937.34;1087318;54;19946;-80
2023/04/15 03:44:00;;;;;;;;;;;;;;;5.09;75.59;98928.56;1087286;54;19942;-81
2023/04/15 03:45:04;;;;;;;;;;;;;;;5.11;75.47;98939.03;1087347;54;19949;-80
2023/04/15 03:46:06;;;;;;;;;;;;;;;5.11;75.81;98939.03;1087476;46;19938;-79
2023/04/15 03:47:10;;;;;;;;;;;;;;;5.06;76.19;98936.78;1087407;54;19990;-80
2023/04/15 03:48:14;;;;;;;;;;;;;;;5.02;76.43;98938.03;1087351;54;19967;-80
2023/04/15 03:49:18;;;;;;;;;;;;;;;4.99;76.34;98930.38;1087281;54;19962;-80
2023/04/15 03:50:19;;;;;;;;;;;;;;;4.97;76.28;98933.13;1087302;54;19947;-81
2023/04/15 03:51:24;;;;;;;;;;;;;;;5.00;76.21;98932.03;1087363;54;19947;-80
2023/04/15 03:52:25;;;;;;;;;;;;;;;4.98;76.01;98934.81;1087333;54;19949;-80
2023/04/15 03:53:29;;;;;;;;;;;;;;;4.95;76.11;98934.25;1087410;54;19999;-80
2023/04/15 03:54:30;;;;;;;;;;;;;;;4.95;76.01;98939.53;1087440;54;19950;-81
2023/04/15 03:55:34;;;;;;;;;;;;;;;4.93;75.88;98938.84;1087354;54;19942;-79
2023/04/15 03:56:36;;;;;;;;;;;;;;;4.94;76.04;98940.50;1087481;39;20173;-79
2023/04/15 03:57:40;;;;;;;;;;;;;;;4.93;76.13;98933.53;1087097;54;19950;-79
2023/04/15 03:58:41;;;;;;;;;;;;;;;4.94;75.99;98941.38;1087060;54;19945;-79
2023/04/15 03:59:45;;;;;;;;;;;;;;;4.97;75.60;98929.66;1087030;54;20680;-79
2023/04/15 04:00:46;;;;;;;;;;;;;;;4.99;75.69;98925.88;1086993;54;19990;-79
2023/04/15 04:01:50;;;;;;;;;;;;;;;5.05;75.28;98929.81;1086969;54;20797;-78
2023/04/15 04:02:52;;;;;;;;;;;;;;;5.06;75.21;98928.84;1091147;39;20216;-78
2023/04/15 04:03:58;;;;;;;;;;;;;;;5.03;75.81;98929.09;1087103;54;19943;-78
2023/04/15 04:04:59;;;;;;;;;;;;;;;4.99;76.00;98931.19;1088002;47;19947;-78
2023/04/15 04:06:03;;;;;;;;;;;;;;;4.97;76.33;98924.34;1088282;39;20192;-79
2023/04/15 04:07:04;;;;;;;;;;;;;;;4.98;76.32;98926.84;1087356;47;19966;-79
2023/04/15 04:08:08;;;;;;;;;;;;;;;4.97;76.35;98921.72;1087182;54;19942;-78
2023/04/15 04:09:09;;;;;;;;;;;;;;;5.00;76.59;98926.75;1086996;54;19939;-79
2023/04/15 04:10:13;;;;;;;;;;;;;;;5.01;76.21;98939.00;1087365;47;19951;-79
2023/04/15 04:11:15;;;;;;;;;;;;;;;4.96;76.70;98928.81;1089625;39;20164;-79
2023/04/15 04:12:18;;;;;;;;;;;;;;;4.95;76.52;98934.25;1087053;54;19994;-78
2023/04/15 04:13:19;;;;;;;;;;;;;;;4.89;76.59;98937.44;1087446;47;19946;-78
2023/04/15 04:14:28;;;;;;;;;;;;;;;4.82;76.67;98945.91;1087011;54;20331;-78
2023/04/15 04:15:32;;;;;;;;;;;;;;;4.79;76.91;98940.06;1087017;54;20662;-78
2023/04/15 04:16:41;;;;;;;;;;;;;;;4.74;76.94;98943.09;1087067;54;19954;-78
2023/04/15 04:17:45;;;;;;;;;;;;;;;4.74;76.87;98945.75;1087006;54;19975;-78
2023/04/15 04:18:52;;;;;;;;;;;;;;;4.75;76.36;98949.25;1086993;54;20666;-80
2023/04/15 04:20:01;;;;;;;;;;;;;;;4.70;76.66;98949.66;1086917;54;20953;-79
2023/04/15 04:21:09;;;;;;;;;;;;;;;4.69;76.83;98945.31;1089138;39;20444;-79
2023/04/15 04:22:11;;;;;;;;;;;;;;;4.68;76.83;98949.78;1086683;54;20540;-78
2023/04/15 04:23:15;;;;;;;;;;;;;;;4.66;77.29;98957.03;1087023;54;19943;-79
2023/04/15 04:24:16;;;;;;;;;;;;;;;4.72;76.93;98954.81;1086922;54;19942;-79
2023/04/15 04:25:21;;;;;;;;;;;;;;;4.72;76.94;98953.00;1087111;54;19942;-78
2023/04/15 04:27:35;;;;;;;;;;;;;;;4.69;77.54;98943.50;1088619;31;20717;-79
2023/04/15 04:28:36;;;;;;;;;;;;;;;4.69;77.38;98947.97;1087178;54;19943;-80
2023/04/15 04:29:39;;;;;;;;;;;;;;;4.69;77.39;98956.75;1086997;54;20006;-79
2023/04/15 04:30:41;;;;;;;;;;;;;;;4.67;77.69;98957.84;1088236;39;20684;-79
2023/04/15 04:31:47;;;;;;;;;;;;;;;4.72;77.59;98958.31;1086911;54;19974;-80
2023/04/15 04:32:49;;;;;;;;;;;;;;;4.69;77.36;98966.50;1086888;54;19942;-80
2023/04/15 04:33:52;;;;;;;;;;;;;;;4.70;77.45;98968.19;1086958;54;19942;-80
2023/04/15 04:34:56;;;;;;;;;;;;;;;4.71;77.51;98961.94;1086900;54;20655;-79
2023/04/15 04:36:00;;;;;;;;;;;;;;;4.71;77.54;98966.38;1087015;54;20011;-79
2023/04/15 04:37:01;;;;;;;;;;;;;;;4.73;77.55;98967.06;1086826;54;19951;-79
2023/04/15 04:38:05;;;;;;;;;;;;;;;4.75;77.26;98973.09;1086850;54;19954;-79
2023/04/15 04:39:06;;;;;;;;;;;;;;;4.76;77.46;98970.28;1087136;54;19995;-79
2023/04/15 04:40:11;;;;;;;;;;;;;;;4.78;76.96;98971.00;1087340;54;19950;-79
2023/04/15 04:41:14;;;;;;;;;;;;;;;4.79;77.16;98966.53;1087813;39;20618;-80
2023/04/15 04:42:15;;;;;;;;;;;;;;;4.79;77.07;98964.75;1087434;54;19957;-80
2023/04/15 04:43:19;;;;;;;;;;;;;;;4.77;76.95;98966.69;1087524;54;19939;-79
2023/04/15 04:44:21;;;;;;;;;;;;;;;4.75;77.27;98967.78;1087403;54;19939;-79
2023/04/15 04:45:24;;;;;;;;;;;;;;;4.78;77.04;98976.31;1087358;54;19950;-79
2023/04/15 04:46:25;;;;;;;;;;;;;;;4.83;76.79;98967.94;1087507;39;20173;-80
2023/04/15 04:47:29;;;;;;;;;;;;;;;4.79;76.74;98970.03;1087609;46;19950;-80
2023/04/15 04:48:30;;;;;;;;;;;;;;;4.81;76.62;98973.41;1087949;46;19939;-79
2023/04/15 04:49:35;;;;;;;;;;;;;;;4.81;76.58;98970.75;1087980;46;20003;-79
2023/04/15 04:50:42;;;;;;;;;;;;;;;4.83;76.74;98974.06;1087378;54;19942;-80
2023/04/15 04:51:43;;;;;;;;;;;;;;;4.81;76.75;98970.75;1088559;46;19938;-80
2023/04/15 04:52:46;;;;;;;;;;;;;;;4.78;76.71;98978.94;1087364;54;19994;-79
2023/04/15 04:53:47;;;;;;;;;;;;;;;4.78;76.55;98978.09;1087755;46;19973;-79
2023/04/15 04:54:51;;;;;;;;;;;;;;;4.73;76.83;98981.13;1087964;46;19938;-79
2023/04/15 04:55:52;;;;;;;;;;;;;;;4.75;76.81;98981.84;1087462;54;19946;-80
2023/04/15 04:56:56;;;;;;;;;;;;;;;4.75;76.92;98981.84;1087612;46;19978;-79
2023/04/15 04:57:57;;;;;;;;;;;;;;;4.72;76.73;98976.84;1087301;54;19966;-79
2023/04/15 04:59:01;;;;;;;;;;;;;;;4.72;76.98;98982.13;1087559;46;19939;-79
2023/04/15 05:00:03;;;;;;;;;;;;;;;4.72;76.74;98981.28;1087249;54;19942;-79
2023/04/15 05:01:07;;;;;;;;;;;;;;;4.76;76.37;98972.94;1087333;54;20259;-80
2023/04/15 05:02:08;;;;;;;;;;;;;;;4.74;76.50;98980.16;1087456;46;20288;-80
2023/04/15 05:03:12;;;;;;;;;;;;;;;4.73;76.61;98978.50;1087338;54;19962;-80
2023/04/15 05:04:13;;;;;;;;;;;;;;;4.72;76.74;98983.94;1087357;54;19946;-79
2023/04/15 05:05:17;;;;;;;;;;;;;;;4.71;76.89;98980.47;1087292;54;19942;-79
2023/04/15 05:06:23;;;;;;;;;;;;;;;4.66;76.98;98986.16;1087279;54;19946;-80
2023/04/15 05:08:51;;;;;;;;;;;;;;;4.57;77.25;98983.44;1087180;54;20582;-79
2023/04/15 05:10:11;;;;;;;;;;;;;;;4.58;77.65;98987.78;1087180;54;19949;-80
2023/04/15 05:11:17;;;;;;;;;;;;;;;4.59;77.68;98987.63;1086884;54;19947;-79
2023/04/15 05:12:34;;;;;;;;;;;;;;;4.61;77.46;98985.69;1086837;54;20567;-80
2023/04/15 05:13:50;;;;;;;;;;;;;;;4.59;77.44;98984.16;1086970;54;19947;-80
2023/04/15 05:18:05;;;;;;;;;;;;;;;4.57;77.88;98988.75;1086824;54;19942;-80
2023/04/15 05:19:10;;;;;;;;;;;;;;;4.59;77.76;98984.97;1086794;54;19943;-81
2023/04/15 05:25:15;;;;;;;;;;;;;;;4.81;76.46;98978.69;1086934;54;20032;-80
2023/04/15 05:26:34;;;;;;;;;;;;;;;;;;;;;
2023/04/15 05:28:13;;;;;;;;;;;;;;;4.83;76.33;98979.38;1086550;54;20762;-79
2023/04/15 05:39:20;;;;;;;;;;;;;;;5.10;75.66;98980.56;1086742;54;19942;-80
2023/04/15 06:08:03;;;;;;;;;;;;;;;5.30;74.98;99002.66;1087030;54;19962;-80
2023/04/15 06:09:05;;;;;;;;;;;;;;;5.38;74.50;98998.47;1086933;54;19950;-80
2023/04/15 06:10:09;;;;;;;;;;;;;;;5.42;74.51;98998.06;1086942;54;20882;-80
2023/04/15 06:17:43;;;;;;;;;;;;;;;5.56;73.85;98994.19;1086935;54;19943;-80
2023/04/15 06:18:46;;;;;;;;;;;;;;;5.57;73.83;98997.69;1087081;46;19942;-81
2023/04/15 06:19:54;;;;;;;;;;;;;;;5.62;73.80;98995.44;1086966;54;19954;-80
2023/04/15 06:21:13;;;;;;;;;;;;;;;5.73;73.42;98997.97;1086890;54;19943;-82
2023/04/15 06:22:17;;;;;;;;;;;;;;;5.75;73.36;99006.63;1086953;54;19939;-80
2023/04/15 06:23:21;;;;;;;;;;;;;;;5.66;73.71;99004.81;1086976;54;19969;-80
2023/04/15 06:24:25;;;;;;;;;;;;;;;5.72;73.61;99001.59;1087673;39;20631;-80
2023/04/15 06:25:26;;;;;;;;;;;;;;;5.82;73.38;99006.06;1086963;54;19942;-79
2023/04/15 06:26:30;;;;;;;;;;;;;;;5.82;73.19;98996.28;1086876;54;19955;-79
2023/04/15 06:27:31;;;;;;;;;;;;;;;5.75;73.22;99001.31;1087044;54;20634;-80
2023/04/15 06:28:35;;;;;;;;;;;;;;;5.76;73.23;99008.28;1088691;31;20931;-80
2023/04/15 06:29:42;;;;;;;;;;;;;;;5.72;73.33;98995.44;1086941;54;19942;-80
2023/04/15 06:30:46;;;;;;;;;;;;;;;5.62;73.62;99000.75;1086921;54;19943;-80
2023/04/15 06:53:24;;;;;;;;;;;;;;;5.83;73.18;99015.69;1086738;54;20062;-82